sensor_id;sensor_type;location;lat;lon;timestamp;P1;durP1;ratioP1;P2;durP2;ratioP2
7171;SDS011;3627;46.544;14.944;2023-05-10T00:01:58;2.92;;;2.67;;
7171;SDS011;3627;46.544;14.944;2023-05-10T00:04:24;3.70;;;3.15;;
7171;SDS011;3627;46.544;14.944;2023-05-10T00:06:52;2.70;;;2.50;;
7171;SDS011;3627;46.544;14.944;2023-05-10T00:09:18;2.67;;;2.47;;
7171;SDS011;3627;46.544;14.944;2023-05-10T00:11:45;2.88;;;2.55;;
7171;SDS011;3627;46.544;14.944;2023-05-10T00:14:12;4.13;;;3.33;;
7171;SDS011;3627;46.544;14.944;2023-05-10T00:16:39;5.45;;;2.92;;
7171;SDS011;3627;46.544;14.944;2023-05-10T00:19:05;3.10;;;2.90;;
7171;SDS011;3627;46.544;14.944;2023-05-10T00:21:32;3.22;;;2.90;;
7171;SDS011;3627;46.544;14.944;2023-05-10T00:23:58;3.55;;;3.25;;
7171;SDS011;3627;46.544;14.944;2023-05-10T00:26:25;3.40;;;2.88;;
7171;SDS011;3627;46.544;14.944;2023-05-10T00:28:51;2.70;;;2.50;;
7171;SDS011;3627;46.544;14.944;2023-05-10T00:31:19;4.28;;;3.88;;
7171;SDS011;3627;46.544;14.944;2023-05-10T00:33:45;4.05;;;3.15;;
7171;SDS011;3627;46.544;14.944;2023-05-10T00:36:11;3.03;;;2.75;;
7171;SDS011;3627;46.544;14.944;2023-05-10T00:38:38;5.85;;;3.47;;
7171;SDS011;3627;46.544;14.944;2023-05-10T00:41:04;3.20;;;3.00;;
7171;SDS011;3627;46.544;14.944;2023-05-10T00:43:32;5.20;;;3.28;;
7171;SDS011;3627;46.544;14.944;2023-05-10T00:45:59;3.67;;;3.13;;
7171;SDS011;3627;46.544;14.944;2023-05-10T00:48:27;3.78;;;3.22;;
7171;SDS011;3627;46.544;14.944;2023-05-10T00:50:54;4.22;;;3.70;;
7171;SDS011;3627;46.544;14.944;2023-05-10T00:53:20;3.97;;;3.28;;
7171;SDS011;3627;46.544;14.944;2023-05-10T00:55:47;9.07;;;3.05;;
7171;SDS011;3627;46.544;14.944;2023-05-10T00:58:13;3.65;;;3.33;;
7171;SDS011;3627;46.544;14.944;2023-05-10T01:00:41;4.38;;;3.20;;
7171;SDS011;3627;46.544;14.944;2023-05-10T01:03:08;4.75;;;3.15;;
7171;SDS011;3627;46.544;14.944;2023-05-10T01:05:36;3.13;;;2.75;;
7171;SDS011;3627;46.544;14.944;2023-05-10T01:08:03;4.20;;;3.28;;
7171;SDS011;3627;46.544;14.944;2023-05-10T01:10:29;5.35;;;3.85;;
7171;SDS011;3627;46.544;14.944;2023-05-10T01:12:56;3.88;;;3.45;;
7171;SDS011;3627;46.544;14.944;2023-05-10T01:15:22;4.60;;;4.05;;
7171;SDS011;3627;46.544;14.944;2023-05-10T01:17:49;3.88;;;3.47;;
7171;SDS011;3627;46.544;14.944;2023-05-10T01:20:15;6.60;;;3.45;;
7171;SDS011;3627;46.544;14.944;2023-05-10T01:22:52;5.50;;;3.95;;
7171;SDS011;3627;46.544;14.944;2023-05-10T01:25:31;4.45;;;3.50;;
7171;SDS011;3627;46.544;14.944;2023-05-10T01:31:11;3.72;;;2.78;;
7171;SDS011;3627;46.544;14.944;2023-05-10T01:33:47;4.43;;;2.85;;
7171;SDS011;3627;46.544;14.944;2023-05-10T01:36:16;5.15;;;3.00;;
7171;SDS011;3627;46.544;14.944;2023-05-10T01:38:46;3.30;;;3.00;;
7171;SDS011;3627;46.544;14.944;2023-05-10T01:41:16;4.22;;;3.83;;
7171;SDS011;3627;46.544;14.944;2023-05-10T01:43:45;4.13;;;3.65;;
7171;SDS011;3627;46.544;14.944;2023-05-10T01:46:14;3.88;;;3.45;;
7171;SDS011;3627;46.544;14.944;2023-05-10T01:48:44;9.15;;;3.45;;
7171;SDS011;3627;46.544;14.944;2023-05-10T01:51:14;4.00;;;3.63;;
7171;SDS011;3627;46.544;14.944;2023-05-10T01:53:43;3.50;;;3.05;;
7171;SDS011;3627;46.544;14.944;2023-05-10T01:56:10;5.57;;;3.83;;
7171;SDS011;3627;46.544;14.944;2023-05-10T01:58:37;6.28;;;3.55;;
7171;SDS011;3627;46.544;14.944;2023-05-10T02:01:05;3.72;;;3.33;;
7171;SDS011;3627;46.544;14.944;2023-05-10T02:03:33;3.38;;;3.00;;
7171;SDS011;3627;46.544;14.944;2023-05-10T02:06:01;3.85;;;3.08;;
7171;SDS011;3627;46.544;14.944;2023-05-10T02:08:29;3.65;;;3.28;;
7171;SDS011;3627;46.544;14.944;2023-05-10T02:10:56;3.78;;;3.33;;
7171;SDS011;3627;46.544;14.944;2023-05-10T02:13:23;3.92;;;2.92;;
7171;SDS011;3627;46.544;14.944;2023-05-10T02:15:50;3.70;;;3.40;;
7171;SDS011;3627;46.544;14.944;2023-05-10T02:18:17;4.70;;;3.42;;
7171;SDS011;3627;46.544;14.944;2023-05-10T02:20:44;3.50;;;3.10;;
7171;SDS011;3627;46.544;14.944;2023-05-10T02:23:11;3.13;;;2.90;;
7171;SDS011;3627;46.544;14.944;2023-05-10T02:25:39;5.65;;;3.92;;
7171;SDS011;3627;46.544;14.944;2023-05-10T02:28:06;5.28;;;3.13;;
7171;SDS011;3627;46.544;14.944;2023-05-10T02:30:33;5.15;;;4.20;;
7171;SDS011;3627;46.544;14.944;2023-05-10T02:33:00;4.35;;;3.10;;
7171;SDS011;3627;46.544;14.944;2023-05-10T02:35:28;4.60;;;3.30;;
7171;SDS011;3627;46.544;14.944;2023-05-10T02:37:54;4.22;;;3.53;;
7171;SDS011;3627;46.544;14.944;2023-05-10T02:40:22;4.45;;;4.10;;
7171;SDS011;3627;46.544;14.944;2023-05-10T02:42:51;3.97;;;3.65;;
7171;SDS011;3627;46.544;14.944;2023-05-10T02:45:20;5.53;;;3.50;;
7171;SDS011;3627;46.544;14.944;2023-05-10T02:47:47;5.97;;;3.58;;
7171;SDS011;3627;46.544;14.944;2023-05-10T02:50:13;4.85;;;3.28;;
7171;SDS011;3627;46.544;14.944;2023-05-10T02:52:40;5.30;;;3.22;;
7171;SDS011;3627;46.544;14.944;2023-05-10T02:55:09;3.92;;;3.10;;
7171;SDS011;3627;46.544;14.944;2023-05-10T02:57:36;3.47;;;3.17;;
7171;SDS011;3627;46.544;14.944;2023-05-10T03:00:07;5.70;;;4.03;;
7171;SDS011;3627;46.544;14.944;2023-05-10T03:02:33;5.40;;;3.17;;
7171;SDS011;3627;46.544;14.944;2023-05-10T03:05:01;3.95;;;3.58;;
7171;SDS011;3627;46.544;14.944;2023-05-10T03:07:28;6.07;;;3.35;;
7171;SDS011;3627;46.544;14.944;2023-05-10T03:09:54;6.38;;;4.03;;
7171;SDS011;3627;46.544;14.944;2023-05-10T03:12:23;3.67;;;3.00;;
7171;SDS011;3627;46.544;14.944;2023-05-10T03:14:54;3.47;;;3.05;;
7171;SDS011;3627;46.544;14.944;2023-05-10T03:17:25;4.63;;;3.20;;
7171;SDS011;3627;46.544;14.944;2023-05-10T03:19:56;4.28;;;3.38;;
7171;SDS011;3627;46.544;14.944;2023-05-10T03:22:24;3.47;;;3.17;;
7171;SDS011;3627;46.544;14.944;2023-05-10T03:24:51;3.75;;;3.47;;
7171;SDS011;3627;46.544;14.944;2023-05-10T03:27:19;3.67;;;3.38;;
7171;SDS011;3627;46.544;14.944;2023-05-10T03:29:46;4.20;;;3.08;;
7171;SDS011;3627;46.544;14.944;2023-05-10T03:32:12;4.50;;;3.45;;
7171;SDS011;3627;46.544;14.944;2023-05-10T03:34:42;4.32;;;2.88;;
7171;SDS011;3627;46.544;14.944;2023-05-10T03:37:08;3.28;;;2.97;;
7171;SDS011;3627;46.544;14.944;2023-05-10T03:39:36;3.63;;;3.33;;
7171;SDS011;3627;46.544;14.944;2023-05-10T03:42:02;3.83;;;3.38;;
7171;SDS011;3627;46.544;14.944;2023-05-10T03:44:29;2.95;;;2.75;;
7171;SDS011;3627;46.544;14.944;2023-05-10T03:46:56;3.75;;;3.08;;
7171;SDS011;3627;46.544;14.944;2023-05-10T03:49:22;5.55;;;4.13;;
7171;SDS011;3627;46.544;14.944;2023-05-10T03:51:50;4.07;;;3.35;;
7171;SDS011;3627;46.544;14.944;2023-05-10T03:54:16;3.45;;;3.15;;
7171;SDS011;3627;46.544;14.944;2023-05-10T03:56:43;6.18;;;3.25;;
7171;SDS011;3627;46.544;14.944;2023-05-10T03:59:09;3.35;;;2.92;;
7171;SDS011;3627;46.544;14.944;2023-05-10T04:01:35;4.28;;;3.88;;
7171;SDS011;3627;46.544;14.944;2023-05-10T04:04:02;4.38;;;3.58;;
7171;SDS011;3627;46.544;14.944;2023-05-10T04:06:28;6.68;;;3.38;;
7171;SDS011;3627;46.544;14.944;2023-05-10T04:08:56;4.30;;;3.90;;
7171;SDS011;3627;46.544;14.944;2023-05-10T04:11:24;7.80;;;3.58;;
7171;SDS011;3627;46.544;14.944;2023-05-10T04:13:51;3.67;;;3.28;;
7171;SDS011;3627;46.544;14.944;2023-05-10T04:16:17;4.50;;;3.55;;
7171;SDS011;3627;46.544;14.944;2023-05-10T04:18:44;4.00;;;3.40;;
7171;SDS011;3627;46.544;14.944;2023-05-10T04:21:13;5.53;;;3.55;;
7171;SDS011;3627;46.544;14.944;2023-05-10T04:23:39;6.20;;;3.45;;
7171;SDS011;3627;46.544;14.944;2023-05-10T04:26:07;3.95;;;3.60;;
7171;SDS011;3627;46.544;14.944;2023-05-10T04:28:33;6.53;;;4.68;;
7171;SDS011;3627;46.544;14.944;2023-05-10T04:31:00;5.00;;;4.03;;
7171;SDS011;3627;46.544;14.944;2023-05-10T04:33:27;13.90;;;4.63;;
7171;SDS011;3627;46.544;14.944;2023-05-10T04:35:53;6.47;;;4.70;;
7171;SDS011;3627;46.544;14.944;2023-05-10T04:38:20;8.48;;;5.72;;
7171;SDS011;3627;46.544;14.944;2023-05-10T04:40:46;20.08;;;9.00;;
7171;SDS011;3627;46.544;14.944;2023-05-10T04:43:14;16.45;;;8.30;;
7171;SDS011;3627;46.544;14.944;2023-05-10T04:45:40;16.15;;;5.47;;
7171;SDS011;3627;46.544;14.944;2023-05-10T04:48:06;12.18;;;5.55;;
7171;SDS011;3627;46.544;14.944;2023-05-10T04:50:33;9.13;;;4.93;;
7171;SDS011;3627;46.544;14.944;2023-05-10T04:52:59;11.40;;;4.93;;
7171;SDS011;3627;46.544;14.944;2023-05-10T04:55:26;8.48;;;4.63;;
7171;SDS011;3627;46.544;14.944;2023-05-10T04:57:52;8.02;;;4.82;;
7171;SDS011;3627;46.544;14.944;2023-05-10T05:00:21;11.68;;;5.22;;
7171;SDS011;3627;46.544;14.944;2023-05-10T05:02:48;9.05;;;4.80;;
7171;SDS011;3627;46.544;14.944;2023-05-10T05:05:14;11.93;;;4.78;;
7171;SDS011;3627;46.544;14.944;2023-05-10T05:07:41;12.25;;;5.07;;
7171;SDS011;3627;46.544;14.944;2023-05-10T05:10:07;10.68;;;5.10;;
7171;SDS011;3627;46.544;14.944;2023-05-10T05:12:35;10.55;;;5.22;;
7171;SDS011;3627;46.544;14.944;2023-05-10T05:15:01;11.40;;;5.28;;
7171;SDS011;3627;46.544;14.944;2023-05-10T05:17:31;11.30;;;5.93;;
7171;SDS011;3627;46.544;14.944;2023-05-10T05:19:57;10.82;;;5.72;;
7171;SDS011;3627;46.544;14.944;2023-05-10T05:22:23;13.95;;;6.25;;
7171;SDS011;3627;46.544;14.944;2023-05-10T05:24:52;23.65;;;7.55;;
7171;SDS011;3627;46.544;14.944;2023-05-10T05:27:19;13.27;;;8.07;;
7171;SDS011;3627;46.544;14.944;2023-05-10T05:29:45;19.77;;;7.90;;
7171;SDS011;3627;46.544;14.944;2023-05-10T05:32:12;22.30;;;7.38;;
7171;SDS011;3627;46.544;14.944;2023-05-10T05:34:40;18.48;;;7.07;;
7171;SDS011;3627;46.544;14.944;2023-05-10T05:37:06;14.43;;;6.70;;
7171;SDS011;3627;46.544;14.944;2023-05-10T05:39:32;7.53;;;5.00;;
7171;SDS011;3627;46.544;14.944;2023-05-10T05:41:59;14.80;;;5.10;;
7171;SDS011;3627;46.544;14.944;2023-05-10T05:44:25;7.38;;;4.80;;
7171;SDS011;3627;46.544;14.944;2023-05-10T05:46:53;6.97;;;4.32;;
7171;SDS011;3627;46.544;14.944;2023-05-10T05:49:20;9.32;;;4.28;;
7171;SDS011;3627;46.544;14.944;2023-05-10T05:51:47;7.65;;;5.25;;
7171;SDS011;3627;46.544;14.944;2023-05-10T05:54:14;11.25;;;5.18;;
7171;SDS011;3627;46.544;14.944;2023-05-10T05:56:41;8.27;;;5.18;;
7171;SDS011;3627;46.544;14.944;2023-05-10T05:59:07;11.82;;;5.38;;
7171;SDS011;3627;46.544;14.944;2023-05-10T06:01:33;9.10;;;5.10;;
7171;SDS011;3627;46.544;14.944;2023-05-10T06:04:00;11.50;;;5.05;;
7171;SDS011;3627;46.544;14.944;2023-05-10T06:06:26;10.80;;;5.63;;
7171;SDS011;3627;46.544;14.944;2023-05-10T06:08:54;9.13;;;4.72;;
7171;SDS011;3627;46.544;14.944;2023-05-10T06:11:21;7.88;;;5.05;;
7171;SDS011;3627;46.544;14.944;2023-05-10T06:13:47;11.50;;;5.53;;
7171;SDS011;3627;46.544;14.944;2023-05-10T06:16:14;7.47;;;5.38;;
7171;SDS011;3627;46.544;14.944;2023-05-10T06:18:40;12.93;;;5.20;;
7171;SDS011;3627;46.544;14.944;2023-05-10T06:21:06;5.68;;;4.22;;
7171;SDS011;3627;46.544;14.944;2023-05-10T06:23:33;6.00;;;4.55;;
7171;SDS011;3627;46.544;14.944;2023-05-10T06:26:00;7.15;;;4.20;;
7171;SDS011;3627;46.544;14.944;2023-05-10T06:28:28;10.80;;;5.53;;
7171;SDS011;3627;46.544;14.944;2023-05-10T06:30:56;8.35;;;4.38;;
7171;SDS011;3627;46.544;14.944;2023-05-10T06:33:22;12.68;;;5.18;;
7171;SDS011;3627;46.544;14.944;2023-05-10T06:35:49;13.43;;;4.47;;
7171;SDS011;3627;46.544;14.944;2023-05-10T06:38:15;7.35;;;4.72;;
7171;SDS011;3627;46.544;14.944;2023-05-10T06:40:41;11.63;;;5.65;;
7171;SDS011;3627;46.544;14.944;2023-05-10T06:43:09;7.28;;;4.65;;
7171;SDS011;3627;46.544;14.944;2023-05-10T06:45:36;7.53;;;4.63;;
7171;SDS011;3627;46.544;14.944;2023-05-10T06:48:02;11.88;;;4.75;;
7171;SDS011;3627;46.544;14.944;2023-05-10T06:50:29;12.63;;;5.78;;
7171;SDS011;3627;46.544;14.944;2023-05-10T06:52:55;9.23;;;4.72;;
7171;SDS011;3627;46.544;14.944;2023-05-10T06:55:21;11.02;;;5.32;;
7171;SDS011;3627;46.544;14.944;2023-05-10T06:57:48;7.32;;;4.45;;
7171;SDS011;3627;46.544;14.944;2023-05-10T07:00:17;13.43;;;5.20;;
7171;SDS011;3627;46.544;14.944;2023-05-10T07:02:44;11.57;;;5.32;;
7171;SDS011;3627;46.544;14.944;2023-05-10T07:05:10;8.98;;;4.65;;
7171;SDS011;3627;46.544;14.944;2023-05-10T07:07:36;6.60;;;4.70;;
7171;SDS011;3627;46.544;14.944;2023-05-10T07:10:03;8.25;;;4.53;;
7171;SDS011;3627;46.544;14.944;2023-05-10T07:12:29;14.30;;;4.45;;
7171;SDS011;3627;46.544;14.944;2023-05-10T07:14:56;7.68;;;4.32;;
7171;SDS011;3627;46.544;14.944;2023-05-10T07:17:24;7.38;;;4.45;;
7171;SDS011;3627;46.544;14.944;2023-05-10T07:19:50;11.10;;;3.85;;
7171;SDS011;3627;46.544;14.944;2023-05-10T07:22:16;9.40;;;4.30;;
7171;SDS011;3627;46.544;14.944;2023-05-10T07:24:43;5.90;;;3.40;;
7171;SDS011;3627;46.544;14.944;2023-05-10T07:27:09;7.47;;;3.45;;
7171;SDS011;3627;46.544;14.944;2023-05-10T07:29:36;4.95;;;3.30;;
7171;SDS011;3627;46.544;14.944;2023-05-10T07:32:02;4.95;;;3.53;;
7171;SDS011;3627;46.544;14.944;2023-05-10T07:34:30;13.48;;;4.22;;
7171;SDS011;3627;46.544;14.944;2023-05-10T07:36:57;7.93;;;4.30;;
7171;SDS011;3627;46.544;14.944;2023-05-10T07:39:24;4.43;;;2.80;;
7171;SDS011;3627;46.544;14.944;2023-05-10T07:41:50;3.15;;;2.50;;
7171;SDS011;3627;46.544;14.944;2023-05-10T07:44:16;2.63;;;2.10;;
7171;SDS011;3627;46.544;14.944;2023-05-10T07:46:43;3.13;;;2.50;;
7171;SDS011;3627;46.544;14.944;2023-05-10T07:49:10;2.50;;;2.30;;
7171;SDS011;3627;46.544;14.944;2023-05-10T07:51:37;4.25;;;2.42;;
7171;SDS011;3627;46.544;14.944;2023-05-10T07:54:04;5.68;;;3.08;;
7171;SDS011;3627;46.544;14.944;2023-05-10T07:56:31;4.70;;;2.30;;
7171;SDS011;3627;46.544;14.944;2023-05-10T07:58:58;2.55;;;2.35;;
7171;SDS011;3627;46.544;14.944;2023-05-10T08:01:24;2.63;;;2.42;;
7171;SDS011;3627;46.544;14.944;2023-05-10T08:03:51;2.42;;;2.22;;
7171;SDS011;3627;46.544;14.944;2023-05-10T08:06:18;4.70;;;2.55;;
7171;SDS011;3627;46.544;14.944;2023-05-10T08:08:46;4.15;;;2.92;;
7171;SDS011;3627;46.544;14.944;2023-05-10T08:11:15;6.60;;;4.30;;
7171;SDS011;3627;46.544;14.944;2023-05-10T08:13:41;2.83;;;2.40;;
7171;SDS011;3627;46.544;14.944;2023-05-10T08:16:07;8.80;;;4.40;;
7171;SDS011;3627;46.544;14.944;2023-05-10T08:18:34;3.85;;;2.95;;
7171;SDS011;3627;46.544;14.944;2023-05-10T08:21:00;8.00;;;3.63;;
7171;SDS011;3627;46.544;14.944;2023-05-10T08:23:27;10.45;;;4.93;;
7171;SDS011;3627;46.544;14.944;2023-05-10T08:25:54;10.98;;;4.55;;
7171;SDS011;3627;46.544;14.944;2023-05-10T08:28:21;7.90;;;5.13;;
7171;SDS011;3627;46.544;14.944;2023-05-10T08:30:49;13.15;;;4.82;;
7171;SDS011;3627;46.544;14.944;2023-05-10T08:33:17;3.78;;;3.20;;
7171;SDS011;3627;46.544;14.944;2023-05-10T08:35:43;8.38;;;4.10;;
7171;SDS011;3627;46.544;14.944;2023-05-10T08:38:10;6.95;;;3.72;;
7171;SDS011;3627;46.544;14.944;2023-05-10T08:40:36;7.20;;;4.35;;
7171;SDS011;3627;46.544;14.944;2023-05-10T08:43:05;6.07;;;4.60;;
7171;SDS011;3627;46.544;14.944;2023-05-10T08:45:32;14.68;;;4.53;;
7171;SDS011;3627;46.544;14.944;2023-05-10T08:47:59;3.00;;;2.60;;
7171;SDS011;3627;46.544;14.944;2023-05-10T08:50:25;7.13;;;2.95;;
7171;SDS011;3627;46.544;14.944;2023-05-10T08:52:52;5.22;;;3.15;;
7171;SDS011;3627;46.544;14.944;2023-05-10T08:55:19;3.50;;;3.10;;
7171;SDS011;3627;46.544;14.944;2023-05-10T08:57:45;10.20;;;3.42;;
7171;SDS011;3627;46.544;14.944;2023-05-10T09:00:15;9.82;;;4.40;;
7171;SDS011;3627;46.544;14.944;2023-05-10T09:02:43;4.97;;;3.65;;
7171;SDS011;3627;46.544;14.944;2023-05-10T09:05:10;7.95;;;4.55;;
7171;SDS011;3627;46.544;14.944;2023-05-10T09:07:37;9.43;;;4.22;;
7171;SDS011;3627;46.544;14.944;2023-05-10T09:10:04;5.43;;;3.75;;
7171;SDS011;3627;46.544;14.944;2023-05-10T09:12:30;6.38;;;3.58;;
7171;SDS011;3627;46.544;14.944;2023-05-10T09:14:57;6.25;;;3.20;;
7171;SDS011;3627;46.544;14.944;2023-05-10T09:17:26;7.03;;;4.53;;
7171;SDS011;3627;46.544;14.944;2023-05-10T09:19:56;7.50;;;4.35;;
7171;SDS011;3627;46.544;14.944;2023-05-10T09:22:23;6.72;;;3.63;;
7171;SDS011;3627;46.544;14.944;2023-05-10T09:25:02;7.07;;;3.60;;
7171;SDS011;3627;46.544;14.944;2023-05-10T09:27:29;6.85;;;3.58;;
7171;SDS011;3627;46.544;14.944;2023-05-10T09:29:55;14.10;;;4.95;;
7171;SDS011;3627;46.544;14.944;2023-05-10T09:32:22;5.43;;;3.22;;
7171;SDS011;3627;46.544;14.944;2023-05-10T09:35:07;3.05;;;2.78;;
7171;SDS011;3627;46.544;14.944;2023-05-10T09:37:33;9.43;;;3.00;;
7171;SDS011;3627;46.544;14.944;2023-05-10T09:39:59;3.33;;;2.63;;
7171;SDS011;3627;46.544;14.944;2023-05-10T09:42:26;5.90;;;2.80;;
7171;SDS011;3627;46.544;14.944;2023-05-10T09:44:52;4.50;;;2.85;;
7171;SDS011;3627;46.544;14.944;2023-05-10T09:47:18;4.50;;;3.15;;
7171;SDS011;3627;46.544;14.944;2023-05-10T09:49:48;2.95;;;2.38;;
7171;SDS011;3627;46.544;14.944;2023-05-10T09:52:16;3.45;;;2.75;;
7171;SDS011;3627;46.544;14.944;2023-05-10T09:54:45;2.97;;;2.50;;
7171;SDS011;3627;46.544;14.944;2023-05-10T09:57:18;6.25;;;2.60;;
7171;SDS011;3627;46.544;14.944;2023-05-10T09:59:44;4.82;;;2.60;;
7171;SDS011;3627;46.544;14.944;2023-05-10T10:02:11;3.15;;;2.40;;
7171;SDS011;3627;46.544;14.944;2023-05-10T10:04:39;2.50;;;2.30;;
7171;SDS011;3627;46.544;14.944;2023-05-10T10:07:05;3.65;;;2.60;;
7171;SDS011;3627;46.544;14.944;2023-05-10T10:09:33;6.28;;;2.38;;
7171;SDS011;3627;46.544;14.944;2023-05-10T10:12:00;5.60;;;2.15;;
7171;SDS011;3627;46.544;14.944;2023-05-10T10:14:27;2.25;;;1.70;;
7171;SDS011;3627;46.544;14.944;2023-05-10T10:16:54;2.78;;;1.85;;
7171;SDS011;3627;46.544;14.944;2023-05-10T10:19:22;2.60;;;1.73;;
7171;SDS011;3627;46.544;14.944;2023-05-10T10:21:49;3.40;;;2.47;;
7171;SDS011;3627;46.544;14.944;2023-05-10T10:24:15;5.00;;;2.67;;
7171;SDS011;3627;46.544;14.944;2023-05-10T10:26:43;2.80;;;2.20;;
7171;SDS011;3627;46.544;14.944;2023-05-10T10:29:15;2.35;;;1.77;;
7171;SDS011;3627;46.544;14.944;2023-05-10T10:31:45;2.28;;;2.08;;
7171;SDS011;3627;46.544;14.944;2023-05-10T10:34:16;2.42;;;2.22;;
7171;SDS011;3627;46.544;14.944;2023-05-10T10:36:48;3.38;;;2.60;;
7171;SDS011;3627;46.544;14.944;2023-05-10T10:39:14;3.80;;;3.08;;
7171;SDS011;3627;46.544;14.944;2023-05-10T10:41:50;6.50;;;2.20;;
7171;SDS011;3627;46.544;14.944;2023-05-10T10:44:26;4.82;;;2.47;;
7171;SDS011;3627;46.544;14.944;2023-05-10T10:47:00;3.65;;;2.60;;
7171;SDS011;3627;46.544;14.944;2023-05-10T10:49:27;5.07;;;2.45;;
7171;SDS011;3627;46.544;14.944;2023-05-10T10:52:12;4.75;;;2.15;;
7171;SDS011;3627;46.544;14.944;2023-05-10T10:54:39;2.90;;;2.08;;
7171;SDS011;3627;46.544;14.944;2023-05-10T10:57:11;2.88;;;2.22;;
7171;SDS011;3627;46.544;14.944;2023-05-10T10:59:41;2.50;;;2.30;;
7171;SDS011;3627;46.544;14.944;2023-05-10T11:02:07;8.00;;;2.67;;
7171;SDS011;3627;46.544;14.944;2023-05-10T11:04:41;3.30;;;2.17;;
7171;SDS011;3627;46.544;14.944;2023-05-10T11:07:17;4.25;;;2.30;;
7171;SDS011;3627;46.544;14.944;2023-05-10T11:09:43;2.72;;;2.25;;
7171;SDS011;3627;46.544;14.944;2023-05-10T11:12:11;2.35;;;2.10;;
7171;SDS011;3627;46.544;14.944;2023-05-10T11:14:38;4.68;;;2.10;;
7171;SDS011;3627;46.544;14.944;2023-05-10T11:22:28;5.57;;;2.50;;
7171;SDS011;3627;46.544;14.944;2023-05-10T11:24:57;3.17;;;2.20;;
7171;SDS011;3627;46.544;14.944;2023-05-10T11:27:25;7.80;;;2.95;;
7171;SDS011;3627;46.544;14.944;2023-05-10T11:29:52;2.45;;;2.22;;
7171;SDS011;3627;46.544;14.944;2023-05-10T11:32:19;3.15;;;2.85;;
7171;SDS011;3627;46.544;14.944;2023-05-10T11:34:46;4.50;;;2.72;;
7171;SDS011;3627;46.544;14.944;2023-05-10T11:37:13;4.60;;;3.15;;
7171;SDS011;3627;46.544;14.944;2023-05-10T11:39:45;4.05;;;2.70;;
7171;SDS011;3627;46.544;14.944;2023-05-10T11:42:11;4.32;;;2.83;;
7171;SDS011;3627;46.544;14.944;2023-05-10T11:44:39;5.13;;;2.92;;
7171;SDS011;3627;46.544;14.944;2023-05-10T11:47:06;3.33;;;3.03;;
7171;SDS011;3627;46.544;14.944;2023-05-10T11:49:33;3.10;;;2.40;;
7171;SDS011;3627;46.544;14.944;2023-05-10T11:52:06;4.97;;;2.80;;
7171;SDS011;3627;46.544;14.944;2023-05-10T11:54:32;3.35;;;2.88;;
7171;SDS011;3627;46.544;14.944;2023-05-10T11:56:59;3.72;;;2.90;;
7171;SDS011;3627;46.544;14.944;2023-05-10T11:59:26;3.40;;;2.53;;
7171;SDS011;3627;46.544;14.944;2023-05-10T12:01:54;3.38;;;2.42;;
7171;SDS011;3627;46.544;14.944;2023-05-10T12:04:20;5.90;;;2.75;;
7171;SDS011;3627;46.544;14.944;2023-05-10T12:06:47;4.88;;;3.22;;
7171;SDS011;3627;46.544;14.944;2023-05-10T12:09:13;5.15;;;2.97;;
7171;SDS011;3627;46.544;14.944;2023-05-10T12:11:40;14.27;;;8.35;;
7171;SDS011;3627;46.544;14.944;2023-05-10T12:14:07;8.80;;;5.07;;
7171;SDS011;3627;46.544;14.944;2023-05-10T12:16:34;4.85;;;4.38;;
7171;SDS011;3627;46.544;14.944;2023-05-10T12:19:03;6.63;;;4.43;;
7171;SDS011;3627;46.544;14.944;2023-05-10T12:21:30;9.23;;;5.80;;
7171;SDS011;3627;46.544;14.944;2023-05-10T12:23:59;11.38;;;4.95;;
7171;SDS011;3627;46.544;14.944;2023-05-10T12:26:25;5.55;;;4.07;;
7171;SDS011;3627;46.544;14.944;2023-05-10T12:28:54;11.63;;;5.90;;
7171;SDS011;3627;46.544;14.944;2023-05-10T12:31:20;5.00;;;3.72;;
7171;SDS011;3627;46.544;14.944;2023-05-10T12:33:47;5.35;;;3.88;;
7171;SDS011;3627;46.544;14.944;2023-05-10T12:36:16;6.97;;;3.85;;
7171;SDS011;3627;46.544;14.944;2023-05-10T12:38:43;4.07;;;3.53;;
7171;SDS011;3627;46.544;14.944;2023-05-10T12:41:13;4.53;;;3.72;;
7171;SDS011;3627;46.544;14.944;2023-05-10T12:43:40;9.40;;;4.45;;
7171;SDS011;3627;46.544;14.944;2023-05-10T12:46:07;6.38;;;4.40;;
7171;SDS011;3627;46.544;14.944;2023-05-10T12:48:33;5.68;;;3.83;;
7171;SDS011;3627;46.544;14.944;2023-05-10T12:51:00;4.68;;;4.15;;
7171;SDS011;3627;46.544;14.944;2023-05-10T12:53:28;4.82;;;4.07;;
7171;SDS011;3627;46.544;14.944;2023-05-10T12:55:54;4.13;;;3.25;;
7171;SDS011;3627;46.544;14.944;2023-05-10T12:58:21;5.57;;;4.03;;
7171;SDS011;3627;46.544;14.944;2023-05-10T13:00:47;6.10;;;4.15;;
7171;SDS011;3627;46.544;14.944;2023-05-10T13:03:14;4.93;;;3.72;;
7171;SDS011;3627;46.544;14.944;2023-05-10T13:05:40;5.50;;;4.13;;
7171;SDS011;3627;46.544;14.944;2023-05-10T13:08:07;7.10;;;4.43;;
7171;SDS011;3627;46.544;14.944;2023-05-10T13:10:34;10.02;;;4.55;;
7171;SDS011;3627;46.544;14.944;2023-05-10T13:13:01;9.50;;;5.00;;
7171;SDS011;3627;46.544;14.944;2023-05-10T13:15:27;6.30;;;4.15;;
7171;SDS011;3627;46.544;14.944;2023-05-10T13:17:54;5.43;;;4.32;;
7171;SDS011;3627;46.544;14.944;2023-05-10T13:20:20;4.63;;;3.53;;
7171;SDS011;3627;46.544;14.944;2023-05-10T13:22:46;5.85;;;4.10;;
7171;SDS011;3627;46.544;14.944;2023-05-10T13:25:13;6.72;;;4.13;;
7171;SDS011;3627;46.544;14.944;2023-05-10T13:27:41;7.22;;;4.47;;
7171;SDS011;3627;46.544;14.944;2023-05-10T13:30:08;8.75;;;4.65;;
7171;SDS011;3627;46.544;14.944;2023-05-10T13:32:35;6.60;;;5.05;;
7171;SDS011;3627;46.544;14.944;2023-05-10T13:35:01;4.85;;;4.00;;
7171;SDS011;3627;46.544;14.944;2023-05-10T13:37:28;8.77;;;4.63;;
7171;SDS011;3627;46.544;14.944;2023-05-10T13:39:54;6.70;;;4.47;;
7171;SDS011;3627;46.544;14.944;2023-05-10T13:42:21;4.40;;;3.85;;
7171;SDS011;3627;46.544;14.944;2023-05-10T13:44:49;10.75;;;5.07;;
7171;SDS011;3627;46.544;14.944;2023-05-10T13:47:15;6.20;;;4.35;;
7171;SDS011;3627;46.544;14.944;2023-05-10T13:49:42;5.15;;;4.40;;
7171;SDS011;3627;46.544;14.944;2023-05-10T13:52:11;5.40;;;4.10;;
7171;SDS011;3627;46.544;14.944;2023-05-10T13:54:37;7.72;;;4.90;;
7171;SDS011;3627;46.544;14.944;2023-05-10T13:57:04;4.97;;;4.35;;
7171;SDS011;3627;46.544;14.944;2023-05-10T13:59:30;5.40;;;4.30;;
7171;SDS011;3627;46.544;14.944;2023-05-10T14:01:58;8.10;;;4.68;;
7171;SDS011;3627;46.544;14.944;2023-05-10T14:04:25;5.68;;;4.75;;
7171;SDS011;3627;46.544;14.944;2023-05-10T14:06:52;8.27;;;4.70;;
7171;SDS011;3627;46.544;14.944;2023-05-10T14:09:18;5.95;;;4.28;;
7171;SDS011;3627;46.544;14.944;2023-05-10T14:11:45;7.97;;;4.70;;
7171;SDS011;3627;46.544;14.944;2023-05-10T14:14:12;5.80;;;4.30;;
7171;SDS011;3627;46.544;14.944;2023-05-10T14:16:41;9.77;;;4.85;;
7171;SDS011;3627;46.544;14.944;2023-05-10T14:19:08;7.88;;;4.30;;
7171;SDS011;3627;46.544;14.944;2023-05-10T14:21:35;7.28;;;4.95;;
7171;SDS011;3627;46.544;14.944;2023-05-10T14:24:01;5.88;;;4.72;;
7171;SDS011;3627;46.544;14.944;2023-05-10T14:26:28;5.75;;;4.25;;
7171;SDS011;3627;46.544;14.944;2023-05-10T14:28:54;6.43;;;4.70;;
7171;SDS011;3627;46.544;14.944;2023-05-10T14:31:20;7.95;;;4.95;;
7171;SDS011;3627;46.544;14.944;2023-05-10T14:33:48;6.20;;;4.88;;
7171;SDS011;3627;46.544;14.944;2023-05-10T14:36:16;7.05;;;4.63;;
7171;SDS011;3627;46.544;14.944;2023-05-10T14:38:43;5.82;;;5.22;;
7171;SDS011;3627;46.544;14.944;2023-05-10T14:41:09;8.85;;;4.97;;
7171;SDS011;3627;46.544;14.944;2023-05-10T14:43:39;6.30;;;5.40;;
7171;SDS011;3627;46.544;14.944;2023-05-10T14:46:05;5.65;;;4.93;;
7171;SDS011;3627;46.544;14.944;2023-05-10T14:48:31;6.25;;;4.75;;
7171;SDS011;3627;46.544;14.944;2023-05-10T14:50:58;4.85;;;4.30;;
7171;SDS011;3627;46.544;14.944;2023-05-10T14:53:25;8.07;;;5.05;;
7171;SDS011;3627;46.544;14.944;2023-05-10T14:55:52;5.80;;;4.75;;
7171;SDS011;3627;46.544;14.944;2023-05-10T14:58:18;6.00;;;5.18;;
7171;SDS011;3627;46.544;14.944;2023-05-10T15:00:45;8.32;;;5.32;;
7171;SDS011;3627;46.544;14.944;2023-05-10T15:03:11;5.40;;;4.80;;
7171;SDS011;3627;46.544;14.944;2023-05-10T15:05:37;7.72;;;5.47;;
7171;SDS011;3627;46.544;14.944;2023-05-10T15:08:04;5.60;;;4.57;;
7171;SDS011;3627;46.544;14.944;2023-05-10T15:10:32;10.80;;;5.93;;